sensor_id;sensor_type;location;lat;lon;timestamp;P1;durP1;ratioP1;P2;durP2;ratioP2
48795;SDS011;34607;48.520;-1.330;2024-03-02T07:46:10;7.45;;;2.15;;
48795;SDS011;34607;48.520;-1.330;2024-03-02T07:48:38;7.00;;;1.30;;
48795;SDS011;34607;48.520;-1.330;2024-03-02T07:51:05;8.63;;;1.48;;
48795;SDS011;34607;48.520;-1.330;2024-03-02T07:53:32;10.85;;;1.83;;
48795;SDS011;34607;48.520;-1.330;2024-03-02T07:55:59;5.65;;;1.73;;
48795;SDS011;34607;48.520;-1.330;2024-03-02T07:58:27;8.40;;;1.60;;
48795;SDS011;34607;48.520;-1.330;2024-03-02T08:00:56;13.38;;;2.15;;
48795;SDS011;34607;48.520;-1.330;2024-03-02T08:03:24;7.97;;;2.08;;
48795;SDS011;34607;48.520;-1.330;2024-03-02T08:05:51;13.43;;;2.03;;
48795;SDS011;34607;48.520;-1.330;2024-03-02T08:08:19;6.88;;;1.75;;
48795;SDS011;34607;48.520;-1.330;2024-03-02T08:10:46;11.13;;;2.20;;
48795;SDS011;34607;48.520;-1.330;2024-03-02T08:13:14;7.07;;;1.75;;
48795;SDS011;34607;48.520;-1.330;2024-03-02T08:15:41;8.27;;;1.60;;
48795;SDS011;34607;48.520;-1.330;2024-03-02T08:18:08;10.38;;;2.25;;
48795;SDS011;34607;48.520;-1.330;2024-03-02T08:20:37;12.38;;;1.55;;
48795;SDS011;34607;48.520;-1.330;2024-03-02T08:23:04;8.05;;;2.28;;
48795;SDS011;34607;48.520;-1.330;2024-03-02T08:25:31;6.28;;;1.95;;
48795;SDS011;34607;48.520;-1.330;2024-03-02T08:27:58;10.25;;;2.03;;
48795;SDS011;34607;48.520;-1.330;2024-03-02T08:30:25;10.52;;;1.88;;
48795;SDS011;34607;48.520;-1.330;2024-03-02T08:32:52;7.78;;;1.92;;
48795;SDS011;34607;48.520;-1.330;2024-03-02T08:35:19;8.45;;;2.75;;
48795;SDS011;34607;48.520;-1.330;2024-03-02T08:37:49;7.47;;;1.38;;
48795;SDS011;34607;48.520;-1.330;2024-03-02T08:40:16;14.60;;;2.42;;
48795;SDS011;34607;48.520;-1.330;2024-03-02T08:42:43;8.80;;;2.10;;
48795;SDS011;34607;48.520;-1.330;2024-03-02T08:45:10;9.10;;;2.03;;
48795;SDS011;34607;48.520;-1.330;2024-03-02T08:47:38;7.68;;;1.20;;
48795;SDS011;34607;48.520;-1.330;2024-03-02T08:50:07;5.05;;;1.70;;
48795;SDS011;34607;48.520;-1.330;2024-03-02T08:52:35;7.22;;;1.25;;
48795;SDS011;34607;48.520;-1.330;2024-03-02T08:55:03;8.80;;;2.22;;
48795;SDS011;34607;48.520;-1.330;2024-03-02T08:57:32;5.35;;;1.85;;
48795;SDS011;34607;48.520;-1.330;2024-03-02T08:59:59;9.82;;;2.35;;
48795;SDS011;34607;48.520;-1.330;2024-03-02T09:02:27;5.32;;;1.63;;
48795;SDS011;34607;48.520;-1.330;2024-03-02T09:04:54;7.38;;;2.00;;
48795;SDS011;34607;48.520;-1.330;2024-03-02T09:07:22;9.55;;;2.15;;
48795;SDS011;34607;48.520;-1.330;2024-03-02T09:09:49;9.15;;;2.50;;
48795;SDS011;34607;48.520;-1.330;2024-03-02T09:12:17;9.35;;;2.30;;
48795;SDS011;34607;48.520;-1.330;2024-03-02T09:14:44;5.22;;;1.83;;
48795;SDS011;34607;48.520;-1.330;2024-03-02T09:17:13;9.50;;;1.92;;
48795;SDS011;34607;48.520;-1.330;2024-03-02T09:19:40;4.10;;;1.35;;
48795;SDS011;34607;48.520;-1.330;2024-03-02T09:22:07;6.82;;;2.13;;
48795;SDS011;34607;48.520;-1.330;2024-03-02T09:24:35;6.13;;;1.58;;
48795;SDS011;34607;48.520;-1.330;2024-03-02T09:27:02;5.85;;;1.83;;
48795;SDS011;34607;48.520;-1.330;2024-03-02T09:29:31;7.55;;;2.28;;
48795;SDS011;34607;48.520;-1.330;2024-03-02T09:31:58;5.43;;;1.90;;
48795;SDS011;34607;48.520;-1.330;2024-03-02T09:34:25;8.45;;;1.60;;
48795;SDS011;34607;48.520;-1.330;2024-03-02T09:36:52;8.05;;;1.88;;
48795;SDS011;34607;48.520;-1.330;2024-03-02T09:39:19;8.20;;;1.70;;
48795;SDS011;34607;48.520;-1.330;2024-03-02T09:41:47;8.02;;;2.03;;
48795;SDS011;34607;48.520;-1.330;2024-03-02T09:44:14;9.52;;;2.60;;
48795;SDS011;34607;48.520;-1.330;2024-03-02T09:46:43;8.23;;;1.55;;
48795;SDS011;34607;48.520;-1.330;2024-03-02T09:49:12;5.05;;;1.70;;
48795;SDS011;34607;48.520;-1.330;2024-03-02T09:51:39;7.80;;;1.60;;
48795;SDS011;34607;48.520;-1.330;2024-03-02T09:54:07;6.20;;;1.63;;
48795;SDS011;34607;48.520;-1.330;2024-03-02T09:56:34;5.53;;;1.75;;
48795;SDS011;34607;48.520;-1.330;2024-03-02T09:59:01;7.90;;;1.60;;
48795;SDS011;34607;48.520;-1.330;2024-03-02T10:01:28;8.68;;;1.70;;
48795;SDS011;34607;48.520;-1.330;2024-03-02T10:03:57;8.55;;;1.50;;
48795;SDS011;34607;48.520;-1.330;2024-03-02T10:06:26;5.35;;;1.75;;
48795;SDS011;34607;48.520;-1.330;2024-03-02T10:08:54;6.15;;;1.80;;
48795;SDS011;34607;48.520;-1.330;2024-03-02T10:11:28;5.95;;;2.05;;
48795;SDS011;34607;48.520;-1.330;2024-03-02T10:14:06;8.02;;;1.50;;
48795;SDS011;34607;48.520;-1.330;2024-03-02T10:16:35;7.82;;;2.20;;
48795;SDS011;34607;48.520;-1.330;2024-03-02T10:19:19;6.75;;;1.55;;
48795;SDS011;34607;48.520;-1.330;2024-03-02T10:21:47;3.08;;;1.23;;
48795;SDS011;34607;48.520;-1.330;2024-03-02T10:24:15;13.10;;;2.10;;
48795;SDS011;34607;48.520;-1.330;2024-03-02T10:26:42;6.45;;;1.33;;
48795;SDS011;34607;48.520;-1.330;2024-03-02T10:29:09;6.60;;;1.70;;
48795;SDS011;34607;48.520;-1.330;2024-03-02T10:31:37;3.95;;;1.30;;
48795;SDS011;34607;48.520;-1.330;2024-03-02T10:34:04;4.93;;;1.67;;
48795;SDS011;34607;48.520;-1.330;2024-03-02T10:36:34;4.68;;;1.20;;
48795;SDS011;34607;48.520;-1.330;2024-03-02T10:39:01;8.25;;;2.28;;
48795;SDS011;34607;48.520;-1.330;2024-03-02T10:41:30;5.18;;;1.42;;
48795;SDS011;34607;48.520;-1.330;2024-03-02T10:44:00;5.85;;;1.50;;
48795;SDS011;34607;48.520;-1.330;2024-03-02T10:46:29;4.88;;;1.95;;
48795;SDS011;34607;48.520;-1.330;2024-03-02T10:48:57;5.57;;;1.80;;
48795;SDS011;34607;48.520;-1.330;2024-03-02T10:51:25;7.57;;;2.38;;
48795;SDS011;34607;48.520;-1.330;2024-03-02T10:53:58;6.40;;;1.75;;
48795;SDS011;34607;48.520;-1.330;2024-03-02T10:56:28;7.70;;;1.85;;
48795;SDS011;34607;48.520;-1.330;2024-03-02T10:59:02;8.52;;;2.08;;
48795;SDS011;34607;48.520;-1.330;2024-03-02T11:01:31;5.25;;;1.85;;
48795;SDS011;34607;48.520;-1.330;2024-03-02T11:03:59;6.22;;;1.95;;
48795;SDS011;34607;48.520;-1.330;2024-03-02T11:06:30;5.50;;;2.05;;
48795;SDS011;34607;48.520;-1.330;2024-03-02T11:09:02;6.53;;;2.78;;
48795;SDS011;34607;48.520;-1.330;2024-03-02T11:11:35;8.52;;;2.00;;
48795;SDS011;34607;48.520;-1.330;2024-03-02T11:14:04;4.20;;;1.25;;
48795;SDS011;34607;48.520;-1.330;2024-03-02T11:16:35;6.30;;;1.52;;
48795;SDS011;34607;48.520;-1.330;2024-03-02T11:19:04;5.88;;;1.85;;
48795;SDS011;34607;48.520;-1.330;2024-03-02T11:21:33;5.85;;;1.58;;
48795;SDS011;34607;48.520;-1.330;2024-03-02T11:24:02;7.38;;;1.65;;
48795;SDS011;34607;48.520;-1.330;2024-03-02T11:26:58;5.93;;;1.88;;
48795;SDS011;34607;48.520;-1.330;2024-03-02T11:29:44;6.90;;;2.17;;
48795;SDS011;34607;48.520;-1.330;2024-03-02T11:32:15;4.57;;;1.52;;
48795;SDS011;34607;48.520;-1.330;2024-03-02T11:34:45;5.00;;;1.98;;
48795;SDS011;34607;48.520;-1.330;2024-03-02T11:37:13;5.18;;;1.88;;
48795;SDS011;34607;48.520;-1.330;2024-03-02T11:39:43;8.50;;;2.03;;
48795;SDS011;34607;48.520;-1.330;2024-03-02T11:42:11;5.43;;;1.60;;
48795;SDS011;34607;48.520;-1.330;2024-03-02T11:44:41;3.08;;;1.60;;
48795;SDS011;34607;48.520;-1.330;2024-03-02T11:47:10;9.50;;;2.20;;
48795;SDS011;34607;48.520;-1.330;2024-03-02T11:49:41;5.85;;;2.17;;
48795;SDS011;34607;48.520;-1.330;2024-03-02T11:52:10;6.07;;;2.15;;
48795;SDS011;34607;48.520;-1.330;2024-03-02T11:54:38;10.55;;;3.03;;
48795;SDS011;34607;48.520;-1.330;2024-03-02T11:57:15;7.30;;;2.83;;
48795;SDS011;34607;48.520;-1.330;2024-03-02T11:59:43;8.77;;;2.60;;
48795;SDS011;34607;48.520;-1.330;2024-03-02T12:02:17;8.25;;;2.67;;
48795;SDS011;34607;48.520;-1.330;2024-03-02T12:04:45;6.25;;;2.17;;
48795;SDS011;34607;48.520;-1.330;2024-03-02T12:07:18;11.95;;;2.95;;
48795;SDS011;34607;48.520;-1.330;2024-03-02T12:09:47;3.83;;;2.15;;
48795;SDS011;34607;48.520;-1.330;2024-03-02T12:12:16;5.55;;;2.03;;
48795;SDS011;34607;48.520;-1.330;2024-03-02T12:14:49;7.35;;;2.80;;
48795;SDS011;34607;48.520;-1.330;2024-03-02T12:17:17;8.65;;;2.55;;
48795;SDS011;34607;48.520;-1.330;2024-03-02T12:19:44;5.13;;;2.83;;
48795;SDS011;34607;48.520;-1.330;2024-03-02T12:22:11;5.75;;;2.40;;
48795;SDS011;34607;48.520;-1.330;2024-03-02T12:24:38;8.70;;;2.75;;
48795;SDS011;34607;48.520;-1.330;2024-03-02T12:27:05;5.25;;;2.42;;
48795;SDS011;34607;48.520;-1.330;2024-03-02T12:29:34;5.63;;;2.17;;
48795;SDS011;34607;48.520;-1.330;2024-03-02T12:32:01;10.82;;;3.20;;
48795;SDS011;34607;48.520;-1.330;2024-03-02T12:34:29;3.85;;;1.52;;
48795;SDS011;34607;48.520;-1.330;2024-03-02T12:36:56;4.57;;;2.17;;
48795;SDS011;34607;48.520;-1.330;2024-03-02T12:39:23;8.30;;;1.92;;
48795;SDS011;34607;48.520;-1.330;2024-03-02T12:41:50;7.60;;;1.98;;
48795;SDS011;34607;48.520;-1.330;2024-03-02T12:44:19;4.88;;;2.50;;
48795;SDS011;34607;48.520;-1.330;2024-03-02T12:46:47;7.22;;;2.20;;
48795;SDS011;34607;48.520;-1.330;2024-03-02T12:49:15;7.68;;;2.30;;
48795;SDS011;34607;48.520;-1.330;2024-03-02T12:51:43;7.00;;;1.92;;
48795;SDS011;34607;48.520;-1.330;2024-03-02T12:54:12;8.45;;;1.70;;
48795;SDS011;34607;48.520;-1.330;2024-03-02T12:56:40;5.15;;;1.75;;
48795;SDS011;34607;48.520;-1.330;2024-03-02T12:59:17;4.88;;;1.63;;
48795;SDS011;34607;48.520;-1.330;2024-03-02T13:04:21;3.35;;;1.45;;
48795;SDS011;34607;48.520;-1.330;2024-03-02T13:06:49;4.40;;;1.50;;
48795;SDS011;34607;48.520;-1.330;2024-03-02T13:09:16;7.75;;;2.08;;
48795;SDS011;34607;48.520;-1.330;2024-03-02T13:11:44;7.03;;;2.15;;
48795;SDS011;34607;48.520;-1.330;2024-03-02T13:14:11;4.90;;;1.80;;
48795;SDS011;34607;48.520;-1.330;2024-03-02T13:16:39;5.88;;;1.98;;
48795;SDS011;34607;48.520;-1.330;2024-03-02T13:19:08;3.90;;;1.90;;
48795;SDS011;34607;48.520;-1.330;2024-03-02T13:21:35;6.20;;;1.90;;
48795;SDS011;34607;48.520;-1.330;2024-03-02T13:24:02;5.40;;;2.05;;
48795;SDS011;34607;48.520;-1.330;2024-03-02T13:26:30;5.35;;;2.42;;
48795;SDS011;34607;48.520;-1.330;2024-03-02T13:28:57;4.18;;;1.65;;
48795;SDS011;34607;48.520;-1.330;2024-03-02T13:31:24;4.82;;;2.00;;
48795;SDS011;34607;48.520;-1.330;2024-03-02T13:33:51;3.25;;;1.70;;
48795;SDS011;34607;48.520;-1.330;2024-03-02T13:36:20;2.95;;;1.40;;
48795;SDS011;34607;48.520;-1.330;2024-03-02T13:38:47;5.82;;;1.75;;
48795;SDS011;34607;48.520;-1.330;2024-03-02T13:41:14;5.45;;;1.85;;
48795;SDS011;34607;48.520;-1.330;2024-03-02T13:43:41;6.90;;;1.80;;
48795;SDS011;34607;48.520;-1.330;2024-03-02T13:46:10;7.45;;;2.13;;
48795;SDS011;34607;48.520;-1.330;2024-03-02T13:48:37;4.97;;;2.00;;
48795;SDS011;34607;48.520;-1.330;2024-03-02T13:51:04;4.18;;;1.80;;
48795;SDS011;34607;48.520;-1.330;2024-03-02T13:53:32;3.83;;;1.90;;
48795;SDS011;34607;48.520;-1.330;2024-03-02T13:56:02;3.28;;;2.08;;
48795;SDS011;34607;48.520;-1.330;2024-03-02T13:58:29;6.95;;;2.50;;
48795;SDS011;34607;48.520;-1.330;2024-03-02T14:00:57;3.70;;;1.40;;
48795;SDS011;34607;48.520;-1.330;2024-03-02T14:03:24;5.72;;;1.38;;
48795;SDS011;34607;48.520;-1.330;2024-03-02T14:05:52;5.18;;;1.20;;
48795;SDS011;34607;48.520;-1.330;2024-03-02T14:08:20;3.78;;;1.17;;
48795;SDS011;34607;48.520;-1.330;2024-03-02T14:10:49;5.00;;;1.48;;
48795;SDS011;34607;48.520;-1.330;2024-03-02T14:13:16;5.40;;;1.30;;
48795;SDS011;34607;48.520;-1.330;2024-03-02T14:15:44;3.83;;;1.67;;
48795;SDS011;34607;48.520;-1.330;2024-03-02T14:18:11;3.95;;;1.15;;
48795;SDS011;34607;48.520;-1.330;2024-03-02T14:20:38;3.67;;;1.50;;
48795;SDS011;34607;48.520;-1.330;2024-03-02T14:23:07;4.25;;;1.20;;
48795;SDS011;34607;48.520;-1.330;2024-03-02T14:25:35;1.85;;;0.80;;
48795;SDS011;34607;48.520;-1.330;2024-03-02T14:28:04;5.30;;;0.80;;
48795;SDS011;34607;48.520;-1.330;2024-03-02T14:30:31;3.60;;;1.23;;
48795;SDS011;34607;48.520;-1.330;2024-03-02T14:32:59;5.20;;;1.38;;
48795;SDS011;34607;48.520;-1.330;2024-03-02T14:35:26;3.03;;;1.25;;
48795;SDS011;34607;48.520;-1.330;2024-03-02T14:37:53;2.63;;;1.20;;
48795;SDS011;34607;48.520;-1.330;2024-03-02T14:40:22;3.50;;;1.10;;
48795;SDS011;34607;48.520;-1.330;2024-03-02T14:42:52;2.75;;;0.80;;
48795;SDS011;34607;48.520;-1.330;2024-03-02T14:45:20;3.47;;;0.80;;
48795;SDS011;34607;48.520;-1.330;2024-03-02T14:47:49;3.65;;;0.75;;
48795;SDS011;34607;48.520;-1.330;2024-03-02T14:50:16;5.75;;;1.20;;
48795;SDS011;34607;48.520;-1.330;2024-03-02T14:52:44;5.57;;;1.35;;
48795;SDS011;34607;48.520;-1.330;2024-03-02T14:55:11;2.55;;;1.13;;
48795;SDS011;34607;48.520;-1.330;2024-03-02T14:57:38;5.25;;;0.80;;
48795;SDS011;34607;48.520;-1.330;2024-03-02T15:00:06;1.77;;;0.73;;
48795;SDS011;34607;48.520;-1.330;2024-03-02T15:02:35;1.35;;;0.70;;
48795;SDS011;34607;48.520;-1.330;2024-03-02T15:05:02;2.85;;;0.88;;
48795;SDS011;34607;48.520;-1.330;2024-03-02T15:07:31;2.55;;;0.70;;
48795;SDS011;34607;48.520;-1.330;2024-03-02T15:09:58;2.15;;;0.80;;
48795;SDS011;34607;48.520;-1.330;2024-03-02T15:12:25;5.78;;;1.10;;
48795;SDS011;34607;48.520;-1.330;2024-03-02T15:14:52;1.70;;;0.70;;
48795;SDS011;34607;48.520;-1.330;2024-03-02T15:17:19;3.80;;;1.00;;
48795;SDS011;34607;48.520;-1.330;2024-03-02T15:19:48;2.45;;;0.95;;
48795;SDS011;34607;48.520;-1.330;2024-03-02T15:22:15;3.85;;;2.30;;
48795;SDS011;34607;48.520;-1.330;2024-03-02T15:24:42;5.57;;;1.40;;
48795;SDS011;34607;48.520;-1.330;2024-03-02T15:27:09;2.58;;;0.95;;
48795;SDS011;34607;48.520;-1.330;2024-03-02T15:29:36;5.10;;;1.25;;
48795;SDS011;34607;48.520;-1.330;2024-03-02T15:32:04;4.45;;;1.00;;
48795;SDS011;34607;48.520;-1.330;2024-03-02T15:34:32;3.00;;;0.82;;
48795;SDS011;34607;48.520;-1.330;2024-03-02T15:37:00;2.97;;;1.45;;
48795;SDS011;34607;48.520;-1.330;2024-03-02T15:39:28;4.13;;;1.30;;
48795;SDS011;34607;48.520;-1.330;2024-03-02T15:41:55;3.38;;;1.30;;
48795;SDS011;34607;48.520;-1.330;2024-03-02T15:44:22;3.75;;;1.10;;
48795;SDS011;34607;48.520;-1.330;2024-03-02T15:46:50;3.47;;;1.20;;
48795;SDS011;34607;48.520;-1.330;2024-03-02T15:49:17;2.28;;;0.90;;
48795;SDS011;34607;48.520;-1.330;2024-03-02T15:51:44;2.90;;;0.70;;
48795;SDS011;34607;48.520;-1.330;2024-03-02T15:54:12;3.08;;;0.75;;
48795;SDS011;34607;48.520;-1.330;2024-03-02T15:56:39;4.28;;;0.77;;
48795;SDS011;34607;48.520;-1.330;2024-03-02T15:59:06;3.47;;;0.70;;
48795;SDS011;34607;48.520;-1.330;2024-03-02T16:01:34;2.90;;;0.68;;
48795;SDS011;34607;48.520;-1.330;2024-03-02T16:04:01;3.65;;;0.82;;
48795;SDS011;34607;48.520;-1.330;2024-03-02T16:06:28;2.85;;;0.82;;
48795;SDS011;34607;48.520;-1.330;2024-03-02T16:08:55;2.22;;;0.70;;
48795;SDS011;34607;48.520;-1.330;2024-03-02T16:11:26;3.08;;;1.02;;
48795;SDS011;34607;48.520;-1.330;2024-03-02T16:13:53;3.28;;;0.82;;
48795;SDS011;34607;48.520;-1.330;2024-03-02T16:16:20;4.40;;;1.10;;
48795;SDS011;34607;48.520;-1.330;2024-03-02T16:18:47;2.33;;;1.08;;
48795;SDS011;34607;48.520;-1.330;2024-03-02T16:21:14;2.67;;;1.38;;
48795;SDS011;34607;48.520;-1.330;2024-03-02T16:23:42;6.93;;;1.65;;
48795;SDS011;34607;48.520;-1.330;2024-03-02T16:26:09;2.88;;;1.10;;
48795;SDS011;34607;48.520;-1.330;2024-03-02T16:28:38;6.53;;;3.45;;
48795;SDS011;34607;48.520;-1.330;2024-03-02T16:31:05;4.45;;;3.35;;
48795;SDS011;34607;48.520;-1.330;2024-03-02T16:33:34;6.18;;;3.03;;
48795;SDS011;34607;48.520;-1.330;2024-03-02T16:36:01;3.90;;;2.30;;
48795;SDS011;34607;48.520;-1.330;2024-03-02T16:38:28;7.38;;;2.33;;
48795;SDS011;34607;48.520;-1.330;2024-03-02T16:40:55;2.97;;;1.55;;
48795;SDS011;34607;48.520;-1.330;2024-03-02T16:43:22;3.75;;;1.27;;
48795;SDS011;34607;48.520;-1.330;2024-03-02T16:45:50;8.50;;;4.00;;
48795;SDS011;34607;48.520;-1.330;2024-03-02T16:48:17;4.70;;;3.03;;
48795;SDS011;34607;48.520;-1.330;2024-03-02T16:50:44;4.13;;;1.73;;
48795;SDS011;34607;48.520;-1.330;2024-03-02T16:53:12;5.97;;;3.10;;
48795;SDS011;34607;48.520;-1.330;2024-03-02T16:55:41;7.38;;;3.53;;
48795;SDS011;34607;48.520;-1.330;2024-03-02T16:58:08;7.15;;;3.38;;
48795;SDS011;34607;48.520;-1.330;2024-03-02T17:00:35;3.88;;;2.50;;
48795;SDS011;34607;48.520;-1.330;2024-03-02T17:03:04;5.25;;;2.88;;
48795;SDS011;34607;48.520;-1.330;2024-03-02T17:05:32;7.28;;;2.55;;
48795;SDS011;34607;48.520;-1.330;2024-03-02T17:07:59;6.28;;;2.40;;
48795;SDS011;34607;48.520;-1.330;2024-03-02T17:10:26;7.03;;;2.45;;
48795;SDS011;34607;48.520;-1.330;2024-03-02T17:12:54;4.90;;;1.40;;
48795;SDS011;34607;48.520;-1.330;2024-03-02T17:15:25;7.22;;;1.60;;
48795;SDS011;34607;48.520;-1.330;2024-03-02T17:17:54;2.92;;;1.55;;
48795;SDS011;34607;48.520;-1.330;2024-03-02T17:20:23;7.70;;;2.13;;
48795;SDS011;34607;48.520;-1.330;2024-03-02T17:22:50;10.20;;;6.00;;
48795;SDS011;34607;48.520;-1.330;2024-03-02T17:25:17;21.63;;;10.85;;
48795;SDS011;34607;48.520;-1.330;2024-03-02T17:27:44;5.72;;;3.33;;
48795;SDS011;34607;48.520;-1.330;2024-03-02T17:30:11;5.95;;;2.58;;
48795;SDS011;34607;48.520;-1.330;2024-03-02T17:32:40;9.57;;;4.60;;
48795;SDS011;34607;48.520;-1.330;2024-03-02T17:35:07;13.18;;;6.28;;
48795;SDS011;34607;48.520;-1.330;2024-03-02T17:37:35;13.63;;;8.82;;
48795;SDS011;34607;48.520;-1.330;2024-03-02T17:40:05;9.40;;;5.20;;
48795;SDS011;34607;48.520;-1.330;2024-03-02T17:42:35;8.55;;;3.05;;
48795;SDS011;34607;48.520;-1.330;2024-03-02T17:45:02;6.57;;;2.53;;
48795;SDS011;34607;48.520;-1.330;2024-03-02T17:47:30;5.32;;;1.80;;
48795;SDS011;34607;48.520;-1.330;2024-03-02T17:49:57;5.78;;;2.28;;
48795;SDS011;34607;48.520;-1.330;2024-03-02T17:52:24;4.65;;;2.10;;
48795;SDS011;34607;48.520;-1.330;2024-03-02T17:54:53;6.68;;;2.88;;
48795;SDS011;34607;48.520;-1.330;2024-03-02T17:57:20;8.30;;;3.03;;
48795;SDS011;34607;48.520;-1.330;2024-03-02T17:59:47;8.38;;;5.47;;
48795;SDS011;34607;48.520;-1.330;2024-03-02T18:02:15;11.23;;;6.00;;
48795;SDS011;34607;48.520;-1.330;2024-03-02T18:04:42;9.85;;;8.05;;
48795;SDS011;34607;48.520;-1.330;2024-03-02T18:07:09;8.65;;;5.95;;
48795;SDS011;34607;48.520;-1.330;2024-03-02T18:09:36;13.65;;;6.35;;
48795;SDS011;34607;48.520;-1.330;2024-03-02T18:12:04;12.52;;;7.93;;
48795;SDS011;34607;48.520;-1.330;2024-03-02T18:14:32;9.50;;;5.85;;
48795;SDS011;34607;48.520;-1.330;2024-03-02T18:16:59;9.70;;;3.65;;
48795;SDS011;34607;48.520;-1.330;2024-03-02T18:19:26;5.63;;;3.40;;
48795;SDS011;34607;48.520;-1.330;2024-03-02T18:21:54;8.15;;;3.92;;
48795;SDS011;34607;48.520;-1.330;2024-03-02T18:24:22;10.43;;;4.30;;
48795;SDS011;34607;48.520;-1.330;2024-03-02T18:26:53;4.88;;;3.70;;
48795;SDS011;34607;48.520;-1.330;2024-03-02T18:29:21;10.13;;;5.68;;
48795;SDS011;34607;48.520;-1.330;2024-03-02T18:31:48;16.55;;;8.68;;
48795;SDS011;34607;48.520;-1.330;2024-03-02T18:34:15;9.80;;;4.32;;
48795;SDS011;34607;48.520;-1.330;2024-03-02T18:36:42;13.75;;;5.53;;
48795;SDS011;34607;48.520;-1.330;2024-03-02T18:39:09;4.53;;;3.67;;
48795;SDS011;34607;48.520;-1.330;2024-03-02T18:41:37;8.90;;;3.80;;
48795;SDS011;34607;48.520;-1.330;2024-03-02T18:44:04;8.48;;;3.63;;
48795;SDS011;34607;48.520;-1.330;2024-03-02T18:46:32;3.92;;;2.75;;
48795;SDS011;34607;48.520;-1.330;2024-03-02T18:49:00;6.53;;;2.50;;
48795;SDS011;34607;48.520;-1.330;2024-03-02T18:51:27;5.22;;;2.70;;
48795;SDS011;34607;48.520;-1.330;2024-03-02T18:53:54;4.88;;;3.10;;
48795;SDS011;34607;48.520;-1.330;2024-03-02T18:56:21;5.72;;;2.97;;
48795;SDS011;34607;48.520;-1.330;2024-03-02T18:58:48;5.68;;;3.03;;
48795;SDS011;34607;48.520;-1.330;2024-03-02T19:01:15;8.00;;;3.50;;
48795;SDS011;34607;48.520;-1.330;2024-03-02T19:03:43;3.22;;;2.10;;
48795;SDS011;34607;48.520;-1.330;2024-03-02T19:06:13;4.10;;;2.85;;
48795;SDS011;34607;48.520;-1.330;2024-03-02T19:08:40;7.95;;;3.88;;
48795;SDS011;34607;48.520;-1.330;2024-03-02T19:11:11;7.50;;;4.80;;
48795;SDS011;34607;48.520;-1.330;2024-03-02T19:13:39;6.25;;;3.63;;
48795;SDS011;34607;48.520;-1.330;2024-03-02T19:16:09;10.07;;;4.18;;
48795;SDS011;34607;48.520;-1.330;2024-03-02T19:18:37;5.90;;;3.00;;
48795;SDS011;34607;48.520;-1.330;2024-03-02T19:21:05;3.60;;;2.65;;
48795;SDS011;34607;48.520;-1.330;2024-03-02T19:23:32;6.65;;;4.55;;
48795;SDS011;34607;48.520;-1.330;2024-03-02T19:26:00;8.13;;;4.45;;
48795;SDS011;34607;48.520;-1.330;2024-03-02T19:28:27;7.72;;;5.40;;
48795;SDS011;34607;48.520;-1.330;2024-03-02T19:30:54;8.65;;;5.43;;
48795;SDS011;34607;48.520;-1.330;2024-03-02T19:33:21;6.90;;;5.22;;
48795;SDS011;34607;48.520;-1.330;2024-03-02T19:35:48;14.00;;;12.52;;
48795;SDS011;34607;48.520;-1.330;2024-03-02T19:38:17;13.43;;;10.82;;
48795;SDS011;34607;48.520;-1.330;2024-03-02T19:40:45;6.43;;;5.63;;
48795;SDS011;34607;48.520;-1.330;2024-03-02T19:43:12;7.90;;;4.57;;
48795;SDS011;34607;48.520;-1.330;2024-03-02T19:45:42;4.85;;;3.75;;
48795;SDS011;34607;48.520;-1.330;2024-03-02T19:48:10;5.95;;;3.60;;
48795;SDS011;34607;48.520;-1.330;2024-03-02T19:50:37;7.50;;;3.83;;
48795;SDS011;34607;48.520;-1.330;2024-03-02T19:53:05;7.50;;;3.85;;
48795;SDS011;34607;48.520;-1.330;2024-03-02T19:55:33;8.55;;;3.72;;
48795;SDS011;34607;48.520;-1.330;2024-03-02T19:58:02;6.97;;;3.63;;
48795;SDS011;34607;48.520;-1.330;2024-03-02T20:00:29;5.95;;;3.75;;
48795;SDS011;34607;48.520;-1.330;2024-03-02T20:02:56;7.70;;;3.60;;
48795;SDS011;34607;48.520;-1.330;2024-03-02T20:05:23;7.57;;;3.65;;
48795;SDS011;34607;48.520;-1.330;2024-03-02T20:07:51;4.50;;;3.83;;
48795;SDS011;34607;48.520;-1.330;2024-03-02T20:10:18;6.15;;;4.15;;
48795;SDS011;34607;48.520;-1.330;2024-03-02T20:12:47;5.75;;;4.78;;
48795;SDS011;34607;48.520;-1.330;2024-03-02T20:15:14;6.43;;;4.20;;
48795;SDS011;34607;48.520;-1.330;2024-03-02T20:17:43;6.20;;;4.28;;
48795;SDS011;34607;48.520;-1.330;2024-03-02T20:20:12;6.05;;;3.40;;
48795;SDS011;34607;48.520;-1.330;2024-03-02T20:22:41;5.88;;;3.65;;
48795;SDS011;34607;48.520;-1.330;2024-03-02T20:25:08;7.65;;;4.38;;
48795;SDS011;34607;48.520;-1.330;2024-03-02T20:27:37;6.43;;;5.60;;
48795;SDS011;34607;48.520;-1.330;2024-03-02T20:30:09;8.15;;;6.00;;
48795;SDS011;34607;48.520;-1.330;2024-03-02T20:32:37;9.50;;;5.70;;
48795;SDS011;34607;48.520;-1.330;2024-03-02T20:35:05;5.75;;;4.88;;
48795;SDS011;34607;48.520;-1.330;2024-03-02T20:37:32;9.23;;;5.53;;
48795;SDS011;34607;48.520;-1.330;2024-03-02T20:40:00;5.97;;;4.10;;
48795;SDS011;34607;48.520;-1.330;2024-03-02T20:42:26;6.97;;;4.07;;
48795;SDS011;34607;48.520;-1.330;2024-03-02T20:44:54;4.95;;;3.80;;
48795;SDS011;34607;48.520;-1.330;2024-03-02T20:47:22;6.00;;;3.72;;
48795;SDS011;34607;48.520;-1.330;2024-03-02T20:49:50;6.60;;;3.00;;
48795;SDS011;34607;48.520;-1.330;2024-03-02T20:52:17;7.40;;;3.45;;
48795;SDS011;34607;48.520;-1.330;2024-03-02T20:54:45;5.50;;;3.40;;
48795;SDS011;34607;48.520;-1.330;2024-03-02T20:57:12;6.03;;;3.20;;
48795;SDS011;34607;48.520;-1.330;2024-03-02T20:59:39;5.93;;;3.28;;
48795;SDS011;34607;48.520;-1.330;2024-03-02T21:02:06;5.40;;;4.13;;
48795;SDS011;34607;48.520;-1.330;2024-03-02T21:07:10;8.10;;;4.22;;
48795;SDS011;34607;48.520;-1.330;2024-03-02T21:09:37;6.88;;;4.63;;
48795;SDS011;34607;48.520;-1.330;2024-03-02T21:12:04;6.85;;;3.90;;
48795;SDS011;34607;48.520;-1.330;2024-03-02T21:14:33;7.05;;;3.75;;
48795;SDS011;34607;48.520;-1.330;2024-03-02T21:17:02;5.13;;;4.45;;
48795;SDS011;34607;48.520;-1.330;2024-03-02T21:19:30;5.07;;;4.13;;
48795;SDS011;34607;48.520;-1.330;2024-03-02T21:21:57;6.05;;;4.07;;
48795;SDS011;34607;48.520;-1.330;2024-03-02T21:24:25;5.95;;;4.05;;
48795;SDS011;34607;48.520;-1.330;2024-03-02T21:26:52;11.32;;;4.57;;
48795;SDS011;34607;48.520;-1.330;2024-03-02T21:29:19;5.75;;;4.13;;
48795;SDS011;34607;48.520;-1.330;2024-03-02T21:31:49;5.25;;;3.53;;
48795;SDS011;34607;48.520;-1.330;2024-03-02T21:34:16;5.57;;;4.40;;
48795;SDS011;34607;48.520;-1.330;2024-03-02T21:36:43;6.95;;;4.65;;
48795;SDS011;34607;48.520;-1.330;2024-03-02T21:39:10;7.13;;;4.18;;
48795;SDS011;34607;48.520;-1.330;2024-03-02T21:41:39;5.20;;;3.60;;
48795;SDS011;34607;48.520;-1.330;2024-03-02T21:44:06;7.72;;;3.78;;
48795;SDS011;34607;48.520;-1.330;2024-03-02T21:46:33;4.95;;;3.20;;
48795;SDS011;34607;48.520;-1.330;2024-03-02T21:49:00;7.07;;;3.20;;
48795;SDS011;34607;48.520;-1.330;2024-03-02T21:51:27;6.63;;;3.42;;
48795;SDS011;34607;48.520;-1.330;2024-03-02T21:53:54;5.85;;;3.42;;
48795;SDS011;34607;48.520;-1.330;2024-03-02T21:56:23;6.97;;;3.63;;
48795;SDS011;34607;48.520;-1.330;2024-03-02T21:58:51;7.80;;;3.55;;
48795;SDS011;34607;48.520;-1.330;2024-03-02T22:01:18;6.47;;;3.83;;
48795;SDS011;34607;48.520;-1.330;2024-03-02T22:03:45;5.97;;;3.72;;
48795;SDS011;34607;48.520;-1.330;2024-03-02T22:06:13;5.13;;;3.70;;
48795;SDS011;34607;48.520;-1.330;2024-03-02T22:08:40;7.35;;;3.53;;
48795;SDS011;34607;48.520;-1.330;2024-03-02T22:11:07;7.15;;;4.28;;
48795;SDS011;34607;48.520;-1.330;2024-03-02T22:13:36;6.97;;;3.60;;
48795;SDS011;34607;48.520;-1.330;2024-03-02T22:16:05;4.57;;;3.40;;
48795;SDS011;34607;48.520;-1.330;2024-03-02T22:18:32;9.00;;;3.88;;
48795;SDS011;34607;48.520;-1.330;2024-03-02T22:20:59;6.47;;;4.03;;
48795;SDS011;34607;48.520;-1.330;2024-03-02T22:23:26;5.47;;;3.38;;
48795;SDS011;34607;48.520;-1.330;2024-03-02T22:25:53;7.35;;;4.38;;
48795;SDS011;34607;48.520;-1.330;2024-03-02T22:28:24;3.47;;;3.17;;